sensor_id;sensor_type;location;lat;lon;timestamp;P1;durP1;ratioP1;P2;durP2;ratioP2
74363;SDS011;62797;49.740;10.154;2023-12-20T00:01:22;15.40;;;8.17;;
74363;SDS011;62797;49.740;10.154;2023-12-20T00:03:48;13.98;;;7.82;;
74363;SDS011;62797;49.740;10.154;2023-12-20T00:06:13;16.88;;;8.73;;
74363;SDS011;62797;49.740;10.154;2023-12-20T00:08:39;14.48;;;8.38;;
74363;SDS011;62797;49.740;10.154;2023-12-20T00:11:05;15.82;;;8.40;;
74363;SDS011;62797;49.740;10.154;2023-12-20T00:13:31;13.83;;;7.47;;
74363;SDS011;62797;49.740;10.154;2023-12-20T00:15:56;12.85;;;6.72;;
74363;SDS011;62797;49.740;10.154;2023-12-20T00:18:22;9.43;;;6.37;;
74363;SDS011;62797;49.740;10.154;2023-12-20T00:20:48;11.95;;;6.50;;
74363;SDS011;62797;49.740;10.154;2023-12-20T00:23:14;12.65;;;7.03;;
74363;SDS011;62797;49.740;10.154;2023-12-20T00:25:39;14.07;;;7.17;;
74363;SDS011;62797;49.740;10.154;2023-12-20T00:28:05;10.50;;;6.27;;
74363;SDS011;62797;49.740;10.154;2023-12-20T00:30:31;10.45;;;5.57;;
74363;SDS011;62797;49.740;10.154;2023-12-20T00:32:57;9.65;;;5.25;;
74363;SDS011;62797;49.740;10.154;2023-12-20T00:35:22;10.70;;;6.00;;
74363;SDS011;62797;49.740;10.154;2023-12-20T00:37:48;9.50;;;5.95;;
74363;SDS011;62797;49.740;10.154;2023-12-20T00:40:14;13.68;;;5.95;;
74363;SDS011;62797;49.740;10.154;2023-12-20T00:42:40;10.18;;;5.10;;
74363;SDS011;62797;49.740;10.154;2023-12-20T00:45:06;8.32;;;4.53;;
74363;SDS011;62797;49.740;10.154;2023-12-20T00:47:32;14.27;;;5.25;;
74363;SDS011;62797;49.740;10.154;2023-12-20T00:49:57;9.93;;;4.50;;
74363;SDS011;62797;49.740;10.154;2023-12-20T00:52:23;6.93;;;4.35;;
74363;SDS011;62797;49.740;10.154;2023-12-20T00:54:50;9.55;;;4.68;;
74363;SDS011;62797;49.740;10.154;2023-12-20T00:57:15;6.07;;;4.05;;
74363;SDS011;62797;49.740;10.154;2023-12-20T00:59:41;11.00;;;4.67;;
74363;SDS011;62797;49.740;10.154;2023-12-20T01:02:07;8.50;;;4.10;;
74363;SDS011;62797;49.740;10.154;2023-12-20T01:04:34;7.40;;;4.20;;
74363;SDS011;62797;49.740;10.154;2023-12-20T01:06:59;6.43;;;4.00;;
74363;SDS011;62797;49.740;10.154;2023-12-20T01:09:25;11.05;;;4.30;;
74363;SDS011;62797;49.740;10.154;2023-12-20T01:11:53;7.03;;;4.05;;
74363;SDS011;62797;49.740;10.154;2023-12-20T01:14:19;7.80;;;4.28;;
74363;SDS011;62797;49.740;10.154;2023-12-20T01:16:45;5.70;;;3.22;;
74363;SDS011;62797;49.740;10.154;2023-12-20T01:19:11;5.55;;;3.38;;
74363;SDS011;62797;49.740;10.154;2023-12-20T01:21:38;3.63;;;3.22;;
74363;SDS011;62797;49.740;10.154;2023-12-20T01:24:04;6.25;;;3.28;;
74363;SDS011;62797;49.740;10.154;2023-12-20T01:26:30;4.70;;;3.00;;
74363;SDS011;62797;49.740;10.154;2023-12-20T01:28:55;5.90;;;3.73;;
74363;SDS011;62797;49.740;10.154;2023-12-20T01:31:21;4.83;;;3.00;;
74363;SDS011;62797;49.740;10.154;2023-12-20T01:33:46;6.70;;;3.63;;
74363;SDS011;62797;49.740;10.154;2023-12-20T01:36:17;5.07;;;2.63;;
74363;SDS011;62797;49.740;10.154;2023-12-20T01:38:42;3.93;;;2.67;;
74363;SDS011;62797;49.740;10.154;2023-12-20T01:41:08;2.67;;;2.08;;
74363;SDS011;62797;49.740;10.154;2023-12-20T01:43:34;3.95;;;2.30;;
74363;SDS011;62797;49.740;10.154;2023-12-20T01:46:00;3.87;;;2.50;;
74363;SDS011;62797;49.740;10.154;2023-12-20T01:48:25;4.25;;;1.95;;
74363;SDS011;62797;49.740;10.154;2023-12-20T01:50:53;3.38;;;2.05;;
74363;SDS011;62797;49.740;10.154;2023-12-20T01:55:46;2.35;;;1.67;;
74363;SDS011;62797;49.740;10.154;2023-12-20T01:58:14;4.15;;;1.40;;
74363;SDS011;62797;49.740;10.154;2023-12-20T02:00:40;2.38;;;1.30;;
74363;SDS011;62797;49.740;10.154;2023-12-20T02:03:06;5.28;;;1.65;;
74363;SDS011;62797;49.740;10.154;2023-12-20T02:05:32;1.33;;;1.23;;
74363;SDS011;62797;49.740;10.154;2023-12-20T02:07:59;3.55;;;1.20;;
74363;SDS011;62797;49.740;10.154;2023-12-20T02:10:25;1.20;;;0.90;;
74363;SDS011;62797;49.740;10.154;2023-12-20T02:15:17;1.55;;;1.00;;
74363;SDS011;62797;49.740;10.154;2023-12-20T02:17:43;17.08;;;1.60;;
74363;SDS011;62797;49.740;10.154;2023-12-20T02:20:10;0.88;;;0.82;;
74363;SDS011;62797;49.740;10.154;2023-12-20T02:22:36;0.93;;;0.73;;
74363;SDS011;62797;49.740;10.154;2023-12-20T02:25:02;1.07;;;0.83;;
74363;SDS011;62797;49.740;10.154;2023-12-20T02:27:28;5.30;;;1.80;;
74363;SDS011;62797;49.740;10.154;2023-12-20T02:29:54;0.90;;;0.85;;
74363;SDS011;62797;49.740;10.154;2023-12-20T02:32:20;0.63;;;0.63;;
74363;SDS011;62797;49.740;10.154;2023-12-20T02:34:49;1.02;;;0.93;;
74363;SDS011;62797;49.740;10.154;2023-12-20T02:37:15;1.85;;;0.77;;
74363;SDS011;62797;49.740;10.154;2023-12-20T02:39:41;0.87;;;0.83;;
74363;SDS011;62797;49.740;10.154;2023-12-20T02:42:07;1.40;;;0.87;;
74363;SDS011;62797;49.740;10.154;2023-12-20T02:44:32;1.53;;;0.80;;
74363;SDS011;62797;49.740;10.154;2023-12-20T02:46:58;1.67;;;1.07;;
74363;SDS011;62797;49.740;10.154;2023-12-20T02:49:23;3.95;;;1.10;;
74363;SDS011;62797;49.740;10.154;2023-12-20T02:51:49;1.25;;;1.15;;
74363;SDS011;62797;49.740;10.154;2023-12-20T02:54:15;1.50;;;1.00;;
74363;SDS011;62797;49.740;10.154;2023-12-20T02:56:41;1.15;;;1.00;;
74363;SDS011;62797;49.740;10.154;2023-12-20T02:59:06;0.70;;;0.70;;
74363;SDS011;62797;49.740;10.154;2023-12-20T03:01:33;1.13;;;0.93;;
74363;SDS011;62797;49.740;10.154;2023-12-20T03:04:00;1.45;;;1.05;;
74363;SDS011;62797;49.740;10.154;2023-12-20T03:06:26;1.13;;;0.95;;
74363;SDS011;62797;49.740;10.154;2023-12-20T03:08:51;0.95;;;0.70;;
74363;SDS011;62797;49.740;10.154;2023-12-20T03:11:17;0.90;;;0.80;;
74363;SDS011;62797;49.740;10.154;2023-12-20T03:13:42;1.10;;;1.00;;
74363;SDS011;62797;49.740;10.154;2023-12-20T03:16:09;2.13;;;1.47;;
74363;SDS011;62797;49.740;10.154;2023-12-20T03:18:40;2.95;;;1.02;;
74363;SDS011;62797;49.740;10.154;2023-12-20T03:21:06;0.95;;;0.82;;
74363;SDS011;62797;49.740;10.154;2023-12-20T03:23:31;1.90;;;1.05;;
74363;SDS011;62797;49.740;10.154;2023-12-20T03:26:00;3.58;;;1.50;;
74363;SDS011;62797;49.740;10.154;2023-12-20T03:28:26;1.10;;;1.00;;
74363;SDS011;62797;49.740;10.154;2023-12-20T03:30:52;2.83;;;0.90;;
74363;SDS011;62797;49.740;10.154;2023-12-20T03:33:18;0.77;;;0.68;;
74363;SDS011;62797;49.740;10.154;2023-12-20T03:35:43;1.13;;;0.83;;
74363;SDS011;62797;49.740;10.154;2023-12-20T03:38:09;2.33;;;0.93;;
74363;SDS011;62797;49.740;10.154;2023-12-20T03:40:35;2.00;;;1.08;;
74363;SDS011;62797;49.740;10.154;2023-12-20T03:43:01;1.13;;;1.02;;
74363;SDS011;62797;49.740;10.154;2023-12-20T03:45:26;1.27;;;0.83;;
74363;SDS011;62797;49.740;10.154;2023-12-20T03:47:52;1.93;;;1.37;;
74363;SDS011;62797;49.740;10.154;2023-12-20T03:50:24;0.65;;;0.60;;
74363;SDS011;62797;49.740;10.154;2023-12-20T03:52:50;0.80;;;0.80;;
74363;SDS011;62797;49.740;10.154;2023-12-20T03:55:16;0.65;;;0.65;;
74363;SDS011;62797;49.740;10.154;2023-12-20T03:57:42;2.10;;;1.77;;
74363;SDS011;62797;49.740;10.154;2023-12-20T04:00:08;0.70;;;0.55;;
74363;SDS011;62797;49.740;10.154;2023-12-20T04:02:40;0.93;;;0.80;;
74363;SDS011;62797;49.740;10.154;2023-12-20T04:05:06;1.10;;;1.00;;
74363;SDS011;62797;49.740;10.154;2023-12-20T04:09:59;1.65;;;0.80;;
74363;SDS011;62797;49.740;10.154;2023-12-20T04:12:26;1.17;;;0.60;;
74363;SDS011;62797;49.740;10.154;2023-12-20T04:14:54;0.70;;;0.68;;
74363;SDS011;62797;49.740;10.154;2023-12-20T04:17:20;4.43;;;0.73;;
74363;SDS011;62797;49.740;10.154;2023-12-20T04:19:48;1.10;;;0.77;;
74363;SDS011;62797;49.740;10.154;2023-12-20T04:22:17;0.70;;;0.70;;
74363;SDS011;62797;49.740;10.154;2023-12-20T04:24:44;1.38;;;0.98;;
74363;SDS011;62797;49.740;10.154;2023-12-20T04:27:10;3.38;;;0.70;;
74363;SDS011;62797;49.740;10.154;2023-12-20T04:29:36;1.67;;;0.73;;
74363;SDS011;62797;49.740;10.154;2023-12-20T04:32:01;0.60;;;0.60;;
74363;SDS011;62797;49.740;10.154;2023-12-20T04:34:27;0.55;;;0.55;;
74363;SDS011;62797;49.740;10.154;2023-12-20T04:36:53;3.08;;;0.85;;
74363;SDS011;62797;49.740;10.154;2023-12-20T04:39:19;2.40;;;1.10;;
74363;SDS011;62797;49.740;10.154;2023-12-20T04:41:45;1.30;;;0.70;;
74363;SDS011;62797;49.740;10.154;2023-12-20T04:44:13;1.40;;;0.82;;
74363;SDS011;62797;49.740;10.154;2023-12-20T04:46:38;2.83;;;0.68;;
74363;SDS011;62797;49.740;10.154;2023-12-20T04:49:04;0.70;;;0.70;;
74363;SDS011;62797;49.740;10.154;2023-12-20T04:51:32;0.70;;;0.70;;
74363;SDS011;62797;49.740;10.154;2023-12-20T04:53:59;1.05;;;0.70;;
74363;SDS011;62797;49.740;10.154;2023-12-20T04:56:24;1.97;;;1.07;;
74363;SDS011;62797;49.740;10.154;2023-12-20T04:58:50;1.45;;;0.98;;
74363;SDS011;62797;49.740;10.154;2023-12-20T05:01:16;0.80;;;0.67;;
74363;SDS011;62797;49.740;10.154;2023-12-20T05:03:42;0.60;;;0.60;;
74363;SDS011;62797;49.740;10.154;2023-12-20T05:06:09;0.70;;;0.70;;
74363;SDS011;62797;49.740;10.154;2023-12-20T05:08:35;1.95;;;0.57;;
74363;SDS011;62797;49.740;10.154;2023-12-20T05:11:00;0.82;;;0.68;;
74363;SDS011;62797;49.740;10.154;2023-12-20T05:13:26;0.95;;;0.77;;
74363;SDS011;62797;49.740;10.154;2023-12-20T05:15:52;1.20;;;0.80;;
74363;SDS011;62797;49.740;10.154;2023-12-20T05:18:18;0.70;;;0.70;;
74363;SDS011;62797;49.740;10.154;2023-12-20T05:20:43;0.60;;;0.53;;
74363;SDS011;62797;49.740;10.154;2023-12-20T05:23:09;1.00;;;0.90;;
74363;SDS011;62797;49.740;10.154;2023-12-20T05:25:36;1.30;;;1.10;;
74363;SDS011;62797;49.740;10.154;2023-12-20T05:28:02;1.07;;;1.00;;
74363;SDS011;62797;49.740;10.154;2023-12-20T05:30:27;1.15;;;1.02;;
74363;SDS011;62797;49.740;10.154;2023-12-20T05:32:53;1.07;;;1.07;;
74363;SDS011;62797;49.740;10.154;2023-12-20T05:35:19;1.23;;;1.03;;
74363;SDS011;62797;49.740;10.154;2023-12-20T05:37:45;1.23;;;1.13;;
74363;SDS011;62797;49.740;10.154;2023-12-20T05:40:10;1.83;;;1.40;;
74363;SDS011;62797;49.740;10.154;2023-12-20T05:42:36;2.50;;;1.30;;
74363;SDS011;62797;49.740;10.154;2023-12-20T05:45:03;1.38;;;1.15;;
74363;SDS011;62797;49.740;10.154;2023-12-20T05:47:30;1.00;;;0.88;;
74363;SDS011;62797;49.740;10.154;2023-12-20T05:49:56;0.73;;;0.73;;
74363;SDS011;62797;49.740;10.154;2023-12-20T05:52:21;1.33;;;1.20;;
74363;SDS011;62797;49.740;10.154;2023-12-20T05:54:47;1.20;;;0.93;;
74363;SDS011;62797;49.740;10.154;2023-12-20T05:57:13;1.23;;;1.13;;
74363;SDS011;62797;49.740;10.154;2023-12-20T05:59:39;1.75;;;1.60;;
74363;SDS011;62797;49.740;10.154;2023-12-20T06:02:04;1.92;;;1.50;;
74363;SDS011;62797;49.740;10.154;2023-12-20T06:04:30;2.07;;;1.87;;
74363;SDS011;62797;49.740;10.154;2023-12-20T06:06:56;4.50;;;2.03;;
74363;SDS011;62797;49.740;10.154;2023-12-20T06:09:22;6.05;;;1.73;;
74363;SDS011;62797;49.740;10.154;2023-12-20T06:11:47;2.53;;;2.08;;
74363;SDS011;62797;49.740;10.154;2023-12-20T06:14:13;6.93;;;2.67;;
74363;SDS011;62797;49.740;10.154;2023-12-20T06:16:39;5.00;;;2.65;;
74363;SDS011;62797;49.740;10.154;2023-12-20T06:19:04;4.57;;;2.37;;
74363;SDS011;62797;49.740;10.154;2023-12-20T06:21:30;2.42;;;1.98;;
74363;SDS011;62797;49.740;10.154;2023-12-20T06:23:58;3.10;;;2.50;;
74363;SDS011;62797;49.740;10.154;2023-12-20T06:26:25;2.40;;;2.05;;
74363;SDS011;62797;49.740;10.154;2023-12-20T06:28:51;9.18;;;2.58;;
74363;SDS011;62797;49.740;10.154;2023-12-20T06:31:16;3.90;;;2.70;;
74363;SDS011;62797;49.740;10.154;2023-12-20T06:33:42;2.67;;;2.00;;
74363;SDS011;62797;49.740;10.154;2023-12-20T06:36:11;3.25;;;2.28;;
74363;SDS011;62797;49.740;10.154;2023-12-20T06:38:38;3.58;;;2.90;;
74363;SDS011;62797;49.740;10.154;2023-12-20T06:41:04;4.05;;;2.83;;
74363;SDS011;62797;49.740;10.154;2023-12-20T06:43:29;3.22;;;2.90;;
74363;SDS011;62797;49.740;10.154;2023-12-20T06:45:56;5.32;;;3.78;;
74363;SDS011;62797;49.740;10.154;2023-12-20T06:48:22;4.38;;;3.10;;
74363;SDS011;62797;49.740;10.154;2023-12-20T06:50:47;3.63;;;2.90;;
74363;SDS011;62797;49.740;10.154;2023-12-20T06:53:13;2.95;;;2.60;;
74363;SDS011;62797;49.740;10.154;2023-12-20T06:55:38;4.73;;;3.67;;
74363;SDS011;62797;49.740;10.154;2023-12-20T06:58:04;5.07;;;3.80;;
74363;SDS011;62797;49.740;10.154;2023-12-20T07:00:30;4.38;;;3.55;;
74363;SDS011;62797;49.740;10.154;2023-12-20T07:02:57;5.13;;;3.22;;
74363;SDS011;62797;49.740;10.154;2023-12-20T07:05:22;3.07;;;2.77;;
74363;SDS011;62797;49.740;10.154;2023-12-20T07:07:48;3.93;;;3.43;;
74363;SDS011;62797;49.740;10.154;2023-12-20T07:10:14;3.87;;;3.17;;
74363;SDS011;62797;49.740;10.154;2023-12-20T07:12:39;6.28;;;4.07;;
74363;SDS011;62797;49.740;10.154;2023-12-20T07:15:05;5.73;;;4.23;;
74363;SDS011;62797;49.740;10.154;2023-12-20T07:17:32;5.45;;;3.88;;
74363;SDS011;62797;49.740;10.154;2023-12-20T07:22:28;7.43;;;4.00;;
74363;SDS011;62797;49.740;10.154;2023-12-20T07:24:56;4.78;;;3.50;;
74363;SDS011;62797;49.740;10.154;2023-12-20T07:29:48;3.60;;;2.63;;
74363;SDS011;62797;49.740;10.154;2023-12-20T07:32:14;5.00;;;3.47;;
74363;SDS011;62797;49.740;10.154;2023-12-20T07:34:40;6.30;;;3.97;;
74363;SDS011;62797;49.740;10.154;2023-12-20T07:37:06;7.32;;;5.28;;
74363;SDS011;62797;49.740;10.154;2023-12-20T07:39:31;7.28;;;3.88;;
74363;SDS011;62797;49.740;10.154;2023-12-20T07:41:57;8.05;;;4.53;;
74363;SDS011;62797;49.740;10.154;2023-12-20T07:44:23;8.47;;;5.70;;
74363;SDS011;62797;49.740;10.154;2023-12-20T07:46:48;9.90;;;6.10;;
74363;SDS011;62797;49.740;10.154;2023-12-20T07:49:15;5.90;;;3.72;;
74363;SDS011;62797;49.740;10.154;2023-12-20T07:51:40;7.43;;;4.37;;
74363;SDS011;62797;49.740;10.154;2023-12-20T07:54:06;7.03;;;4.03;;
74363;SDS011;62797;49.740;10.154;2023-12-20T07:56:35;7.10;;;3.50;;
74363;SDS011;62797;49.740;10.154;2023-12-20T07:59:00;8.48;;;3.63;;
74363;SDS011;62797;49.740;10.154;2023-12-20T08:01:26;5.15;;;3.45;;
74363;SDS011;62797;49.740;10.154;2023-12-20T08:03:52;9.23;;;5.27;;
74363;SDS011;62797;49.740;10.154;2023-12-20T08:06:18;9.35;;;3.90;;
74363;SDS011;62797;49.740;10.154;2023-12-20T08:08:43;6.78;;;3.55;;
74363;SDS011;62797;49.740;10.154;2023-12-20T08:11:09;10.13;;;5.43;;
74363;SDS011;62797;49.740;10.154;2023-12-20T08:13:35;7.20;;;3.93;;
74363;SDS011;62797;49.740;10.154;2023-12-20T08:16:00;5.03;;;3.43;;
74363;SDS011;62797;49.740;10.154;2023-12-20T08:18:28;9.63;;;3.50;;
74363;SDS011;62797;49.740;10.154;2023-12-20T08:23:20;7.00;;;3.17;;
74363;SDS011;62797;49.740;10.154;2023-12-20T08:25:46;4.93;;;3.00;;
74363;SDS011;62797;49.740;10.154;2023-12-20T08:28:13;5.07;;;3.38;;
74363;SDS011;62797;49.740;10.154;2023-12-20T08:30:39;4.90;;;3.20;;
74363;SDS011;62797;49.740;10.154;2023-12-20T08:33:05;9.85;;;3.38;;
74363;SDS011;62797;49.740;10.154;2023-12-20T08:35:36;7.30;;;2.90;;
74363;SDS011;62797;49.740;10.154;2023-12-20T08:38:02;6.68;;;3.22;;
74363;SDS011;62797;49.740;10.154;2023-12-20T08:40:29;7.28;;;4.07;;
74363;SDS011;62797;49.740;10.154;2023-12-20T08:42:54;7.40;;;2.80;;
74363;SDS011;62797;49.740;10.154;2023-12-20T08:45:20;8.68;;;3.13;;
74363;SDS011;62797;49.740;10.154;2023-12-20T08:47:47;11.73;;;3.72;;
74363;SDS011;62797;49.740;10.154;2023-12-20T08:50:13;8.37;;;2.50;;
74363;SDS011;62797;49.740;10.154;2023-12-20T08:52:40;7.00;;;3.10;;
74363;SDS011;62797;49.740;10.154;2023-12-20T08:55:06;9.45;;;3.55;;
74363;SDS011;62797;49.740;10.154;2023-12-20T08:57:32;9.65;;;3.33;;
74363;SDS011;62797;49.740;10.154;2023-12-20T08:59:58;9.57;;;2.92;;
74363;SDS011;62797;49.740;10.154;2023-12-20T09:02:24;9.77;;;3.00;;
74363;SDS011;62797;49.740;10.154;2023-12-20T09:04:50;8.18;;;3.00;;
74363;SDS011;62797;49.740;10.154;2023-12-20T09:07:25;7.15;;;3.22;;
74363;SDS011;62797;49.740;10.154;2023-12-20T09:09:52;5.43;;;3.50;;
74363;SDS011;62797;49.740;10.154;2023-12-20T09:12:19;8.27;;;3.08;;
74363;SDS011;62797;49.740;10.154;2023-12-20T09:14:48;10.13;;;3.17;;
74363;SDS011;62797;49.740;10.154;2023-12-20T09:17:15;8.05;;;3.45;;
74363;SDS011;62797;49.740;10.154;2023-12-20T09:19:42;5.35;;;2.80;;
74363;SDS011;62797;49.740;10.154;2023-12-20T09:22:11;5.53;;;3.03;;
74363;SDS011;62797;49.740;10.154;2023-12-20T09:24:37;11.27;;;4.35;;
74363;SDS011;62797;49.740;10.154;2023-12-20T09:27:06;8.70;;;3.58;;
74363;SDS011;62797;49.740;10.154;2023-12-20T09:29:32;11.50;;;3.20;;
74363;SDS011;62797;49.740;10.154;2023-12-20T09:31:59;7.70;;;4.10;;
74363;SDS011;62797;49.740;10.154;2023-12-20T09:34:25;6.43;;;3.20;;
74363;SDS011;62797;49.740;10.154;2023-12-20T09:36:52;7.90;;;2.70;;
74363;SDS011;62797;49.740;10.154;2023-12-20T09:39:17;6.78;;;2.95;;
74363;SDS011;62797;49.740;10.154;2023-12-20T09:41:45;13.55;;;3.75;;
74363;SDS011;62797;49.740;10.154;2023-12-20T09:44:21;8.75;;;3.83;;
74363;SDS011;62797;49.740;10.154;2023-12-20T09:46:49;6.32;;;3.22;;
74363;SDS011;62797;49.740;10.154;2023-12-20T09:49:19;12.98;;;5.15;;
74363;SDS011;62797;49.740;10.154;2023-12-20T09:51:48;7.15;;;3.40;;
74363;SDS011;62797;49.740;10.154;2023-12-20T09:54:16;10.40;;;3.45;;
74363;SDS011;62797;49.740;10.154;2023-12-20T09:59:13;8.00;;;2.58;;
74363;SDS011;62797;49.740;10.154;2023-12-20T10:01:42;8.68;;;3.38;;
74363;SDS011;62797;49.740;10.154;2023-12-20T10:04:09;5.00;;;2.90;;
74363;SDS011;62797;49.740;10.154;2023-12-20T10:06:40;13.32;;;3.40;;
74363;SDS011;62797;49.740;10.154;2023-12-20T10:09:07;9.80;;;2.70;;
74363;SDS011;62797;49.740;10.154;2023-12-20T10:11:34;14.93;;;3.20;;
74363;SDS011;62797;49.740;10.154;2023-12-20T10:14:02;31.30;;;3.08;;
74363;SDS011;62797;49.740;10.154;2023-12-20T10:16:28;5.53;;;2.10;;
74363;SDS011;62797;49.740;10.154;2023-12-20T10:21:24;11.07;;;2.20;;
74363;SDS011;62797;49.740;10.154;2023-12-20T10:23:54;9.15;;;3.35;;
74363;SDS011;62797;49.740;10.154;2023-12-20T10:26:20;7.15;;;1.92;;
74363;SDS011;62797;49.740;10.154;2023-12-20T10:28:49;9.02;;;3.97;;
74363;SDS011;62797;49.740;10.154;2023-12-20T10:31:26;9.73;;;2.40;;
74363;SDS011;62797;49.740;10.154;2023-12-20T10:33:53;9.48;;;2.17;;
74363;SDS011;62797;49.740;10.154;2023-12-20T10:36:20;7.00;;;2.30;;
74363;SDS011;62797;49.740;10.154;2023-12-20T10:38:48;16.00;;;3.08;;
74363;SDS011;62797;49.740;10.154;2023-12-20T10:41:17;8.82;;;2.60;;
74363;SDS011;62797;49.740;10.154;2023-12-20T10:43:48;7.80;;;2.08;;
74363;SDS011;62797;49.740;10.154;2023-12-20T10:46:13;10.83;;;2.73;;
74363;SDS011;62797;49.740;10.154;2023-12-20T10:48:40;8.57;;;2.55;;
74363;SDS011;62797;49.740;10.154;2023-12-20T10:51:07;10.43;;;2.65;;
74363;SDS011;62797;49.740;10.154;2023-12-20T10:53:33;8.98;;;2.72;;
74363;SDS011;62797;49.740;10.154;2023-12-20T10:56:01;11.63;;;2.65;;
74363;SDS011;62797;49.740;10.154;2023-12-20T10:58:30;8.85;;;2.38;;
74363;SDS011;62797;49.740;10.154;2023-12-20T11:01:00;11.98;;;2.70;;
74363;SDS011;62797;49.740;10.154;2023-12-20T11:03:32;3.72;;;1.77;;
74363;SDS011;62797;49.740;10.154;2023-12-20T11:08:58;11.35;;;3.20;;
74363;SDS011;62797;49.740;10.154;2023-12-20T11:14:19;11.27;;;2.08;;
74363;SDS011;62797;49.740;10.154;2023-12-20T11:16:49;18.63;;;5.93;;
74363;SDS011;62797;49.740;10.154;2023-12-20T11:19:16;7.65;;;2.40;;
74363;SDS011;62797;49.740;10.154;2023-12-20T11:21:42;7.07;;;2.90;;
74363;SDS011;62797;49.740;10.154;2023-12-20T11:24:07;7.27;;;2.90;;
74363;SDS011;62797;49.740;10.154;2023-12-20T11:26:35;10.38;;;2.13;;
74363;SDS011;62797;49.740;10.154;2023-12-20T11:31:55;8.20;;;1.83;;
74363;SDS011;62797;49.740;10.154;2023-12-20T11:34:20;4.47;;;2.30;;
74363;SDS011;62797;49.740;10.154;2023-12-20T11:36:46;6.47;;;2.83;;
74363;SDS011;62797;49.740;10.154;2023-12-20T11:39:12;14.15;;;3.40;;
74363;SDS011;62797;49.740;10.154;2023-12-20T11:41:46;10.07;;;2.22;;
74363;SDS011;62797;49.740;10.154;2023-12-20T11:44:12;7.47;;;2.03;;
74363;SDS011;62797;49.740;10.154;2023-12-20T11:46:38;8.57;;;3.80;;
74363;SDS011;62797;49.740;10.154;2023-12-20T11:49:04;10.27;;;2.23;;
74363;SDS011;62797;49.740;10.154;2023-12-20T11:51:30;8.00;;;2.40;;
74363;SDS011;62797;49.740;10.154;2023-12-20T11:53:55;18.87;;;3.63;;
74363;SDS011;62797;49.740;10.154;2023-12-20T11:56:21;3.20;;;1.60;;
74363;SDS011;62797;49.740;10.154;2023-12-20T11:58:47;13.47;;;4.10;;
74363;SDS011;62797;49.740;10.154;2023-12-20T12:01:13;7.97;;;2.30;;
74363;SDS011;62797;49.740;10.154;2023-12-20T12:03:39;7.97;;;2.07;;
74363;SDS011;62797;49.740;10.154;2023-12-20T12:08:32;8.93;;;2.83;;
74363;SDS011;62797;49.740;10.154;2023-12-20T12:10:58;5.53;;;2.25;;
74363;SDS011;62797;49.740;10.154;2023-12-20T12:13:24;8.23;;;2.17;;
74363;SDS011;62797;49.740;10.154;2023-12-20T12:15:52;3.20;;;1.70;;
74363;SDS011;62797;49.740;10.154;2023-12-20T12:20:44;7.45;;;1.90;;
74363;SDS011;62797;49.740;10.154;2023-12-20T12:25:36;5.03;;;1.95;;
74363;SDS011;62797;49.740;10.154;2023-12-20T12:28:02;11.25;;;2.30;;
74363;SDS011;62797;49.740;10.154;2023-12-20T12:30:28;8.43;;;2.75;;
74363;SDS011;62797;49.740;10.154;2023-12-20T12:32:56;3.97;;;2.20;;
74363;SDS011;62797;49.740;10.154;2023-12-20T12:35:23;9.40;;;2.40;;
74363;SDS011;62797;49.740;10.154;2023-12-20T12:37:48;12.45;;;3.22;;
74363;SDS011;62797;49.740;10.154;2023-12-20T12:40:15;7.03;;;2.23;;
74363;SDS011;62797;49.740;10.154;2023-12-20T12:42:42;8.35;;;2.17;;
74363;SDS011;62797;49.740;10.154;2023-12-20T12:45:09;11.07;;;2.38;;
74363;SDS011;62797;49.740;10.154;2023-12-20T12:47:36;10.60;;;2.10;;
74363;SDS011;62797;49.740;10.154;2023-12-20T12:52:29;23.33;;;2.72;;
74363;SDS011;62797;49.740;10.154;2023-12-20T12:54:56;14.88;;;2.10;;
74363;SDS011;62797;49.740;10.154;2023-12-20T12:57:22;18.15;;;2.40;;
74363;SDS011;62797;49.740;10.154;2023-12-20T12:59:49;5.90;;;2.80;;
74363;SDS011;62797;49.740;10.154;2023-12-20T13:04:41;7.53;;;2.40;;
74363;SDS011;62797;49.740;10.154;2023-12-20T13:07:08;7.53;;;2.70;;
74363;SDS011;62797;49.740;10.154;2023-12-20T13:09:36;9.70;;;2.58;;
74363;SDS011;62797;49.740;10.154;2023-12-20T13:12:02;8.93;;;1.80;;
74363;SDS011;62797;49.740;10.154;2023-12-20T13:14:34;16.20;;;2.00;;
74363;SDS011;62797;49.740;10.154;2023-12-20T13:17:02;12.27;;;2.58;;
74363;SDS011;62797;49.740;10.154;2023-12-20T13:19:28;7.38;;;2.22;;
74363;SDS011;62797;49.740;10.154;2023-12-20T13:24:21;8.68;;;1.80;;
74363;SDS011;62797;49.740;10.154;2023-12-20T13:26:46;14.90;;;3.10;;
74363;SDS011;62797;49.740;10.154;2023-12-20T13:29:12;3.08;;;1.90;;
74363;SDS011;62797;49.740;10.154;2023-12-20T13:31:39;10.52;;;2.08;;
74363;SDS011;62797;49.740;10.154;2023-12-20T13:34:05;7.95;;;2.72;;
74363;SDS011;62797;49.740;10.154;2023-12-20T13:36:31;6.28;;;1.95;;
74363;SDS011;62797;49.740;10.154;2023-12-20T13:38:57;8.83;;;1.90;;
74363;SDS011;62797;49.740;10.154;2023-12-20T13:41:23;7.17;;;2.07;;
74363;SDS011;62797;49.740;10.154;2023-12-20T13:43:48;7.47;;;2.07;;
74363;SDS011;62797;49.740;10.154;2023-12-20T13:46:14;14.07;;;2.80;;
74363;SDS011;62797;49.740;10.154;2023-12-20T13:48:39;13.07;;;2.80;;
74363;SDS011;62797;49.740;10.154;2023-12-20T13:51:06;4.25;;;1.67;;
74363;SDS011;62797;49.740;10.154;2023-12-20T13:53:32;6.82;;;2.30;;
74363;SDS011;62797;49.740;10.154;2023-12-20T13:55:58;9.52;;;1.92;;
74363;SDS011;62797;49.740;10.154;2023-12-20T14:00:50;9.90;;;2.50;;
74363;SDS011;62797;49.740;10.154;2023-12-20T14:03:16;8.13;;;2.42;;
74363;SDS011;62797;49.740;10.154;2023-12-20T14:05:42;8.20;;;2.28;;
74363;SDS011;62797;49.740;10.154;2023-12-20T14:08:08;10.33;;;3.20;;
74363;SDS011;62797;49.740;10.154;2023-12-20T14:10:35;12.20;;;3.92;;
74363;SDS011;62797;49.740;10.154;2023-12-20T14:13:00;8.65;;;2.58;;
74363;SDS011;62797;49.740;10.154;2023-12-20T14:15:26;12.70;;;3.90;;
74363;SDS011;62797;49.740;10.154;2023-12-20T14:17:52;14.33;;;4.33;;
74363;SDS011;62797;49.740;10.154;2023-12-20T14:20:18;12.40;;;4.90;;
74363;SDS011;62797;49.740;10.154;2023-12-20T14:22:43;14.88;;;4.95;;
74363;SDS011;62797;49.740;10.154;2023-12-20T14:25:12;20.87;;;6.60;;
74363;SDS011;62797;49.740;10.154;2023-12-20T14:27:39;7.13;;;2.65;;
74363;SDS011;62797;49.740;10.154;2023-12-20T14:30:05;26.85;;;5.75;;
74363;SDS011;62797;49.740;10.154;2023-12-20T14:32:34;13.88;;;3.40;;
74363;SDS011;62797;49.740;10.154;2023-12-20T14:35:02;4.53;;;2.72;;
74363;SDS011;62797;49.740;10.154;2023-12-20T14:37:29;6.00;;;2.58;;
74363;SDS011;62797;49.740;10.154;2023-12-20T14:39:54;11.70;;;3.57;;
74363;SDS011;62797;49.740;10.154;2023-12-20T14:42:20;9.20;;;2.30;;
74363;SDS011;62797;49.740;10.154;2023-12-20T14:44:47;9.05;;;3.55;;
74363;SDS011;62797;49.740;10.154;2023-12-20T14:47:13;8.43;;;3.47;;
74363;SDS011;62797;49.740;10.154;2023-12-20T14:49:40;7.50;;;2.97;;
74363;SDS011;62797;49.740;10.154;2023-12-20T14:52:06;5.57;;;3.50;;
74363;SDS011;62797;49.740;10.154;2023-12-20T14:54:31;7.70;;;3.57;;
74363;SDS011;62797;49.740;10.154;2023-12-20T14:56:57;6.43;;;2.60;;
74363;SDS011;62797;49.740;10.154;2023-12-20T14:59:24;9.95;;;2.83;;
74363;SDS011;62797;49.740;10.154;2023-12-20T15:01:50;11.83;;;3.67;;
74363;SDS011;62797;49.740;10.154;2023-12-20T15:04:16;14.90;;;3.47;;
74363;SDS011;62797;49.740;10.154;2023-12-20T15:06:42;9.02;;;3.53;;
74363;SDS011;62797;49.740;10.154;2023-12-20T15:09:10;15.68;;;6.25;;
74363;SDS011;62797;49.740;10.154;2023-12-20T15:11:36;13.18;;;5.10;;